sensor_id;sensor_type;location;lat;lon;timestamp;P1;durP1;ratioP1;P2;durP2;ratioP2
49592;SDS011;35499;51.482;4.264;2023-03-12T00:00:58;10.00;;;3.93;;
49592;SDS011;35499;51.482;4.264;2023-03-12T00:03:25;7.75;;;3.20;;
49592;SDS011;35499;51.482;4.264;2023-03-12T00:05:50;8.30;;;3.37;;
49592;SDS011;35499;51.482;4.264;2023-03-12T00:08:16;9.63;;;3.80;;
49592;SDS011;35499;51.482;4.264;2023-03-12T00:10:41;5.00;;;3.07;;
49592;SDS011;35499;51.482;4.264;2023-03-12T00:13:06;7.07;;;3.43;;
49592;SDS011;35499;51.482;4.264;2023-03-12T00:15:34;7.47;;;3.40;;
49592;SDS011;35499;51.482;4.264;2023-03-12T00:18:01;9.48;;;3.15;;
49592;SDS011;35499;51.482;4.264;2023-03-12T00:20:26;4.25;;;2.50;;
49592;SDS011;35499;51.482;4.264;2023-03-12T00:22:51;5.17;;;2.47;;
49592;SDS011;35499;51.482;4.264;2023-03-12T00:25:17;5.20;;;2.63;;
49592;SDS011;35499;51.482;4.264;2023-03-12T00:27:42;9.63;;;2.92;;
49592;SDS011;35499;51.482;4.264;2023-03-12T00:30:08;6.13;;;2.67;;
49592;SDS011;35499;51.482;4.264;2023-03-12T00:32:35;6.00;;;2.78;;
49592;SDS011;35499;51.482;4.264;2023-03-12T00:35:01;5.75;;;3.13;;
49592;SDS011;35499;51.482;4.264;2023-03-12T00:37:28;4.55;;;2.30;;
49592;SDS011;35499;51.482;4.264;2023-03-12T00:39:54;4.40;;;2.25;;
49592;SDS011;35499;51.482;4.264;2023-03-12T00:42:19;8.67;;;2.97;;
49592;SDS011;35499;51.482;4.264;2023-03-12T00:44:44;8.90;;;2.70;;
49592;SDS011;35499;51.482;4.264;2023-03-12T00:47:10;5.33;;;3.03;;
49592;SDS011;35499;51.482;4.264;2023-03-12T00:49:36;8.25;;;2.70;;
49592;SDS011;35499;51.482;4.264;2023-03-12T00:52:01;7.90;;;2.83;;
49592;SDS011;35499;51.482;4.264;2023-03-12T00:54:27;7.40;;;2.77;;
49592;SDS011;35499;51.482;4.264;2023-03-12T00:56:52;7.50;;;2.63;;
49592;SDS011;35499;51.482;4.264;2023-03-12T00:59:17;9.37;;;2.73;;
49592;SDS011;35499;51.482;4.264;2023-03-12T01:01:42;6.37;;;2.37;;
49592;SDS011;35499;51.482;4.264;2023-03-12T01:04:08;5.50;;;2.75;;
49592;SDS011;35499;51.482;4.264;2023-03-12T01:06:34;4.35;;;2.28;;
49592;SDS011;35499;51.482;4.264;2023-03-12T01:09:00;5.13;;;2.53;;
49592;SDS011;35499;51.482;4.264;2023-03-12T01:11:27;6.43;;;2.88;;
49592;SDS011;35499;51.482;4.264;2023-03-12T01:13:52;7.25;;;2.65;;
49592;SDS011;35499;51.482;4.264;2023-03-12T01:16:18;5.15;;;2.75;;
49592;SDS011;35499;51.482;4.264;2023-03-12T01:18:43;6.20;;;2.55;;
49592;SDS011;35499;51.482;4.264;2023-03-12T01:21:09;4.67;;;3.00;;
49592;SDS011;35499;51.482;4.264;2023-03-12T01:23:34;7.20;;;2.90;;
49592;SDS011;35499;51.482;4.264;2023-03-12T01:25:59;8.43;;;2.83;;
49592;SDS011;35499;51.482;4.264;2023-03-12T01:28:25;5.23;;;2.43;;
49592;SDS011;35499;51.482;4.264;2023-03-12T01:30:51;6.30;;;2.70;;
49592;SDS011;35499;51.482;4.264;2023-03-12T01:33:16;4.53;;;2.67;;
49592;SDS011;35499;51.482;4.264;2023-03-12T01:35:42;5.32;;;2.42;;
49592;SDS011;35499;51.482;4.264;2023-03-12T01:38:10;7.65;;;2.38;;
49592;SDS011;35499;51.482;4.264;2023-03-12T01:40:37;3.65;;;2.70;;
49592;SDS011;35499;51.482;4.264;2023-03-12T01:43:23;6.18;;;2.72;;
49592;SDS011;35499;51.482;4.264;2023-03-12T01:48:38;4.85;;;2.22;;
49592;SDS011;35499;51.482;4.264;2023-03-12T01:51:07;6.78;;;2.90;;
49592;SDS011;35499;51.482;4.264;2023-03-12T01:53:34;4.38;;;2.10;;
49592;SDS011;35499;51.482;4.264;2023-03-12T01:56:01;7.63;;;2.78;;
49592;SDS011;35499;51.482;4.264;2023-03-12T01:58:27;5.85;;;2.47;;
49592;SDS011;35499;51.482;4.264;2023-03-12T02:00:56;7.00;;;2.63;;
49592;SDS011;35499;51.482;4.264;2023-03-12T02:03:21;8.00;;;2.85;;
49592;SDS011;35499;51.482;4.264;2023-03-12T02:05:47;6.63;;;2.20;;
49592;SDS011;35499;51.482;4.264;2023-03-12T02:08:17;5.53;;;2.63;;
49592;SDS011;35499;51.482;4.264;2023-03-12T02:10:43;7.47;;;3.38;;
49592;SDS011;35499;51.482;4.264;2023-03-12T02:13:09;7.25;;;3.17;;
49592;SDS011;35499;51.482;4.264;2023-03-12T02:15:35;6.30;;;3.60;;
49592;SDS011;35499;51.482;4.264;2023-03-12T02:18:02;9.07;;;3.08;;
49592;SDS011;35499;51.482;4.264;2023-03-12T02:23:29;6.03;;;3.05;;
49592;SDS011;35499;51.482;4.264;2023-03-12T02:25:59;6.28;;;2.65;;
49592;SDS011;35499;51.482;4.264;2023-03-12T02:28:27;5.65;;;3.22;;
49592;SDS011;35499;51.482;4.264;2023-03-12T02:30:56;3.80;;;1.77;;
49592;SDS011;35499;51.482;4.264;2023-03-12T02:33:23;7.85;;;3.00;;
49592;SDS011;35499;51.482;4.264;2023-03-12T02:35:50;5.28;;;2.97;;
49592;SDS011;35499;51.482;4.264;2023-03-12T02:38:33;6.25;;;3.08;;
49592;SDS011;35499;51.482;4.264;2023-03-12T02:40:59;5.80;;;3.45;;
49592;SDS011;35499;51.482;4.264;2023-03-12T02:43:28;8.45;;;3.50;;
49592;SDS011;35499;51.482;4.264;2023-03-12T02:45:54;5.30;;;3.00;;
49592;SDS011;35499;51.482;4.264;2023-03-12T02:48:19;9.10;;;3.17;;
49592;SDS011;35499;51.482;4.264;2023-03-12T02:50:45;9.07;;;2.43;;
49592;SDS011;35499;51.482;4.264;2023-03-12T02:53:10;7.85;;;4.13;;
49592;SDS011;35499;51.482;4.264;2023-03-12T02:55:35;9.17;;;2.83;;
49592;SDS011;35499;51.482;4.264;2023-03-12T02:58:01;9.23;;;3.00;;
49592;SDS011;35499;51.482;4.264;2023-03-12T03:00:26;8.60;;;3.57;;
49592;SDS011;35499;51.482;4.264;2023-03-12T03:02:51;7.20;;;2.53;;
49592;SDS011;35499;51.482;4.264;2023-03-12T03:05:17;7.63;;;2.43;;
49592;SDS011;35499;51.482;4.264;2023-03-12T03:07:42;4.65;;;2.00;;
49592;SDS011;35499;51.482;4.264;2023-03-12T03:10:08;4.23;;;2.67;;
49592;SDS011;35499;51.482;4.264;2023-03-12T03:12:35;4.35;;;2.20;;
49592;SDS011;35499;51.482;4.264;2023-03-12T03:15:00;6.75;;;3.90;;
49592;SDS011;35499;51.482;4.264;2023-03-12T03:17:26;6.57;;;3.20;;
49592;SDS011;35499;51.482;4.264;2023-03-12T03:19:51;8.53;;;3.47;;
49592;SDS011;35499;51.482;4.264;2023-03-12T03:22:18;7.40;;;2.10;;
49592;SDS011;35499;51.482;4.264;2023-03-12T03:24:45;7.55;;;3.15;;
49592;SDS011;35499;51.482;4.264;2023-03-12T03:27:10;5.80;;;2.65;;
49592;SDS011;35499;51.482;4.264;2023-03-12T03:29:36;5.57;;;2.38;;
49592;SDS011;35499;51.482;4.264;2023-03-12T03:32:02;6.93;;;2.60;;
49592;SDS011;35499;51.482;4.264;2023-03-12T03:34:27;8.05;;;4.10;;
49592;SDS011;35499;51.482;4.264;2023-03-12T03:36:53;11.50;;;5.23;;
49592;SDS011;35499;51.482;4.264;2023-03-12T03:39:18;8.63;;;4.33;;
49592;SDS011;35499;51.482;4.264;2023-03-12T03:41:44;7.70;;;3.72;;
49592;SDS011;35499;51.482;4.264;2023-03-12T03:44:11;8.30;;;2.92;;
49592;SDS011;35499;51.482;4.264;2023-03-12T03:46:37;8.70;;;4.03;;
49592;SDS011;35499;51.482;4.264;2023-03-12T03:49:02;14.70;;;3.85;;
49592;SDS011;35499;51.482;4.264;2023-03-12T03:51:28;7.90;;;3.42;;
49592;SDS011;35499;51.482;4.264;2023-03-12T03:53:54;4.68;;;2.83;;
49592;SDS011;35499;51.482;4.264;2023-03-12T03:56:19;8.73;;;5.07;;
49592;SDS011;35499;51.482;4.264;2023-03-12T03:58:44;11.65;;;5.47;;
49592;SDS011;35499;51.482;4.264;2023-03-12T04:01:11;5.85;;;3.40;;
49592;SDS011;35499;51.482;4.264;2023-03-12T04:03:37;8.02;;;3.90;;
49592;SDS011;35499;51.482;4.264;2023-03-12T04:06:03;5.47;;;3.33;;
49592;SDS011;35499;51.482;4.264;2023-03-12T04:08:31;9.65;;;4.63;;
49592;SDS011;35499;51.482;4.264;2023-03-12T04:10:59;10.23;;;4.70;;
49592;SDS011;35499;51.482;4.264;2023-03-12T04:13:31;10.15;;;6.32;;
49592;SDS011;35499;51.482;4.264;2023-03-12T04:15:56;10.13;;;4.83;;
49592;SDS011;35499;51.482;4.264;2023-03-12T04:18:21;12.17;;;5.10;;
49592;SDS011;35499;51.482;4.264;2023-03-12T04:20:47;9.88;;;4.50;;
49592;SDS011;35499;51.482;4.264;2023-03-12T04:23:12;10.23;;;5.07;;
49592;SDS011;35499;51.482;4.264;2023-03-12T04:25:37;8.23;;;4.23;;
49592;SDS011;35499;51.482;4.264;2023-03-12T04:28:03;12.25;;;5.28;;
49592;SDS011;35499;51.482;4.264;2023-03-12T04:30:29;6.43;;;3.38;;
49592;SDS011;35499;51.482;4.264;2023-03-12T04:32:54;9.07;;;4.73;;
49592;SDS011;35499;51.482;4.264;2023-03-12T04:35:19;8.23;;;4.47;;
49592;SDS011;35499;51.482;4.264;2023-03-12T04:37:45;4.53;;;3.00;;
49592;SDS011;35499;51.482;4.264;2023-03-12T04:40:10;10.03;;;4.67;;
49592;SDS011;35499;51.482;4.264;2023-03-12T04:42:37;9.93;;;4.90;;
49592;SDS011;35499;51.482;4.264;2023-03-12T04:45:03;10.95;;;4.72;;
49592;SDS011;35499;51.482;4.264;2023-03-12T04:47:30;10.35;;;4.55;;
49592;SDS011;35499;51.482;4.264;2023-03-12T04:49:56;6.40;;;3.30;;
49592;SDS011;35499;51.482;4.264;2023-03-12T04:52:21;14.03;;;4.50;;
49592;SDS011;35499;51.482;4.264;2023-03-12T04:54:47;7.30;;;2.93;;
49592;SDS011;35499;51.482;4.264;2023-03-12T04:57:12;10.73;;;4.15;;
49592;SDS011;35499;51.482;4.264;2023-03-12T04:59:37;6.75;;;3.70;;
49592;SDS011;35499;51.482;4.264;2023-03-12T05:02:03;11.10;;;4.50;;
49592;SDS011;35499;51.482;4.264;2023-03-12T05:04:28;5.83;;;2.60;;
49592;SDS011;35499;51.482;4.264;2023-03-12T05:06:53;7.03;;;3.20;;
49592;SDS011;35499;51.482;4.264;2023-03-12T05:09:19;6.30;;;3.03;;
49592;SDS011;35499;51.482;4.264;2023-03-12T05:11:44;8.87;;;3.90;;
49592;SDS011;35499;51.482;4.264;2023-03-12T05:14:10;10.77;;;4.07;;
49592;SDS011;35499;51.482;4.264;2023-03-12T05:16:35;8.32;;;3.65;;
49592;SDS011;35499;51.482;4.264;2023-03-12T05:19:01;6.47;;;3.57;;
49592;SDS011;35499;51.482;4.264;2023-03-12T05:21:26;11.73;;;5.10;;
49592;SDS011;35499;51.482;4.264;2023-03-12T05:23:52;7.75;;;4.75;;
49592;SDS011;35499;51.482;4.264;2023-03-12T05:26:18;8.93;;;4.13;;
49592;SDS011;35499;51.482;4.264;2023-03-12T05:28:46;9.48;;;4.05;;
49592;SDS011;35499;51.482;4.264;2023-03-12T05:31:12;10.25;;;3.90;;
49592;SDS011;35499;51.482;4.264;2023-03-12T05:36:04;6.65;;;4.00;;
49592;SDS011;35499;51.482;4.264;2023-03-12T05:38:30;7.28;;;4.25;;
49592;SDS011;35499;51.482;4.264;2023-03-12T05:40:56;9.25;;;3.33;;
49592;SDS011;35499;51.482;4.264;2023-03-12T05:43:23;10.52;;;4.05;;
49592;SDS011;35499;51.482;4.264;2023-03-12T05:45:48;6.72;;;3.85;;
49592;SDS011;35499;51.482;4.264;2023-03-12T05:48:14;9.98;;;3.47;;
49592;SDS011;35499;51.482;4.264;2023-03-12T05:50:39;6.85;;;4.00;;
49592;SDS011;35499;51.482;4.264;2023-03-12T05:53:05;10.20;;;4.25;;
49592;SDS011;35499;51.482;4.264;2023-03-12T05:55:33;8.43;;;3.90;;
49592;SDS011;35499;51.482;4.264;2023-03-12T05:58:00;10.23;;;4.70;;
49592;SDS011;35499;51.482;4.264;2023-03-12T06:00:27;8.10;;;4.50;;
49592;SDS011;35499;51.482;4.264;2023-03-12T06:02:52;9.17;;;3.97;;
49592;SDS011;35499;51.482;4.264;2023-03-12T06:05:17;8.60;;;3.80;;
49592;SDS011;35499;51.482;4.264;2023-03-12T06:07:42;8.93;;;4.63;;
49592;SDS011;35499;51.482;4.264;2023-03-12T06:10:08;8.07;;;4.47;;
49592;SDS011;35499;51.482;4.264;2023-03-12T06:12:34;8.73;;;4.53;;
49592;SDS011;35499;51.482;4.264;2023-03-12T06:14:59;10.20;;;5.97;;
49592;SDS011;35499;51.482;4.264;2023-03-12T06:17:25;9.87;;;4.60;;
49592;SDS011;35499;51.482;4.264;2023-03-12T06:19:50;8.57;;;4.27;;
49592;SDS011;35499;51.482;4.264;2023-03-12T06:22:16;8.07;;;3.80;;
49592;SDS011;35499;51.482;4.264;2023-03-12T06:24:42;9.88;;;4.38;;
49592;SDS011;35499;51.482;4.264;2023-03-12T06:27:11;5.80;;;3.00;;
49592;SDS011;35499;51.482;4.264;2023-03-12T06:29:36;10.68;;;4.55;;
49592;SDS011;35499;51.482;4.264;2023-03-12T06:32:02;6.35;;;3.47;;
49592;SDS011;35499;51.482;4.264;2023-03-12T06:34:27;10.75;;;5.03;;
49592;SDS011;35499;51.482;4.264;2023-03-12T06:36:53;14.85;;;5.60;;
49592;SDS011;35499;51.482;4.264;2023-03-12T06:39:18;10.43;;;5.10;;
49592;SDS011;35499;51.482;4.264;2023-03-12T06:41:43;14.43;;;6.10;;
49592;SDS011;35499;51.482;4.264;2023-03-12T06:44:09;19.13;;;7.27;;
49592;SDS011;35499;51.482;4.264;2023-03-12T06:46:34;18.30;;;9.03;;
49592;SDS011;35499;51.482;4.264;2023-03-12T06:48:59;15.90;;;8.07;;
49592;SDS011;35499;51.482;4.264;2023-03-12T06:51:25;16.33;;;8.27;;
49592;SDS011;35499;51.482;4.264;2023-03-12T06:53:50;19.97;;;9.30;;
49592;SDS011;35499;51.482;4.264;2023-03-12T06:56:15;14.73;;;7.07;;
49592;SDS011;35499;51.482;4.264;2023-03-12T06:58:41;15.23;;;7.97;;
49592;SDS011;35499;51.482;4.264;2023-03-12T07:01:06;17.67;;;8.60;;
49592;SDS011;35499;51.482;4.264;2023-03-12T07:03:32;15.30;;;8.82;;
49592;SDS011;35499;51.482;4.264;2023-03-12T07:05:57;25.00;;;10.45;;
49592;SDS011;35499;51.482;4.264;2023-03-12T07:08:24;14.25;;;7.07;;
49592;SDS011;35499;51.482;4.264;2023-03-12T07:10:53;22.50;;;10.38;;
49592;SDS011;35499;51.482;4.264;2023-03-12T07:13:19;22.30;;;9.57;;
49592;SDS011;35499;51.482;4.264;2023-03-12T07:15:44;20.30;;;11.77;;
49592;SDS011;35499;51.482;4.264;2023-03-12T07:18:10;22.48;;;10.43;;
49592;SDS011;35499;51.482;4.264;2023-03-12T07:20:37;26.08;;;10.98;;
49592;SDS011;35499;51.482;4.264;2023-03-12T07:25:29;14.35;;;6.70;;
49592;SDS011;35499;51.482;4.264;2023-03-12T07:27:54;18.95;;;9.23;;
49592;SDS011;35499;51.482;4.264;2023-03-12T07:30:19;22.67;;;11.63;;
49592;SDS011;35499;51.482;4.264;2023-03-12T07:32:45;23.83;;;10.20;;
49592;SDS011;35499;51.482;4.264;2023-03-12T07:35:10;20.30;;;9.57;;
49592;SDS011;35499;51.482;4.264;2023-03-12T07:37:36;26.92;;;11.85;;
49592;SDS011;35499;51.482;4.264;2023-03-12T07:40:01;15.23;;;7.13;;
49592;SDS011;35499;51.482;4.264;2023-03-12T07:42:31;22.30;;;9.02;;
49592;SDS011;35499;51.482;4.264;2023-03-12T07:44:56;30.08;;;13.05;;
49592;SDS011;35499;51.482;4.264;2023-03-12T07:47:21;31.53;;;12.43;;
49592;SDS011;35499;51.482;4.264;2023-03-12T07:49:47;24.20;;;11.70;;
49592;SDS011;35499;51.482;4.264;2023-03-12T07:52:12;32.22;;;11.02;;
49592;SDS011;35499;51.482;4.264;2023-03-12T07:54:37;29.30;;;12.37;;
49592;SDS011;35499;51.482;4.264;2023-03-12T07:57:03;35.50;;;12.33;;
49592;SDS011;35499;51.482;4.264;2023-03-12T07:59:29;33.38;;;11.90;;
49592;SDS011;35499;51.482;4.264;2023-03-12T08:01:54;29.27;;;11.50;;
49592;SDS011;35499;51.482;4.264;2023-03-12T08:04:19;36.20;;;11.93;;
49592;SDS011;35499;51.482;4.264;2023-03-12T08:06:45;34.03;;;13.63;;
49592;SDS011;35499;51.482;4.264;2023-03-12T08:09:10;33.42;;;12.85;;
49592;SDS011;35499;51.482;4.264;2023-03-12T08:11:36;23.98;;;10.02;;
49592;SDS011;35499;51.482;4.264;2023-03-12T08:14:02;36.40;;;11.20;;
49592;SDS011;35499;51.482;4.264;2023-03-12T08:16:28;37.72;;;11.50;;
49592;SDS011;35499;51.482;4.264;2023-03-12T08:18:53;33.63;;;10.77;;
49592;SDS011;35499;51.482;4.264;2023-03-12T08:21:19;29.08;;;10.98;;
49592;SDS011;35499;51.482;4.264;2023-03-12T08:23:44;32.87;;;12.37;;
49592;SDS011;35499;51.482;4.264;2023-03-12T08:26:09;23.57;;;9.67;;
49592;SDS011;35499;51.482;4.264;2023-03-12T08:28:35;23.60;;;8.90;;
49592;SDS011;35499;51.482;4.264;2023-03-12T08:31:00;23.77;;;10.27;;
49592;SDS011;35499;51.482;4.264;2023-03-12T08:33:26;27.50;;;9.98;;
49592;SDS011;35499;51.482;4.264;2023-03-12T08:35:52;30.98;;;10.23;;
49592;SDS011;35499;51.482;4.264;2023-03-12T08:38:17;25.50;;;9.23;;
49592;SDS011;35499;51.482;4.264;2023-03-12T08:40:43;34.63;;;11.45;;
49592;SDS011;35499;51.482;4.264;2023-03-12T08:43:08;22.02;;;8.35;;
49592;SDS011;35499;51.482;4.264;2023-03-12T08:45:34;25.30;;;8.85;;
49592;SDS011;35499;51.482;4.264;2023-03-12T08:48:02;21.85;;;8.98;;
49592;SDS011;35499;51.482;4.264;2023-03-12T08:50:29;24.05;;;8.40;;
49592;SDS011;35499;51.482;4.264;2023-03-12T08:52:56;25.88;;;8.02;;
49592;SDS011;35499;51.482;4.264;2023-03-12T08:55:22;26.65;;;8.65;;
49592;SDS011;35499;51.482;4.264;2023-03-12T08:57:47;21.43;;;7.53;;
49592;SDS011;35499;51.482;4.264;2023-03-12T09:00:13;26.73;;;9.20;;
49592;SDS011;35499;51.482;4.264;2023-03-12T09:05:07;29.23;;;7.95;;
49592;SDS011;35499;51.482;4.264;2023-03-12T09:07:32;35.15;;;9.05;;
49592;SDS011;35499;51.482;4.264;2023-03-12T09:09:58;28.55;;;8.70;;
49592;SDS011;35499;51.482;4.264;2023-03-12T09:12:23;28.80;;;8.70;;
49592;SDS011;35499;51.482;4.264;2023-03-12T09:14:49;29.13;;;8.80;;
49592;SDS011;35499;51.482;4.264;2023-03-12T09:17:15;23.38;;;7.30;;
49592;SDS011;35499;51.482;4.264;2023-03-12T09:19:40;20.27;;;6.37;;
49592;SDS011;35499;51.482;4.264;2023-03-12T09:22:05;25.87;;;6.77;;
49592;SDS011;35499;51.482;4.264;2023-03-12T09:24:30;18.45;;;6.68;;
49592;SDS011;35499;51.482;4.264;2023-03-12T09:26:56;25.10;;;5.57;;
49592;SDS011;35499;51.482;4.264;2023-03-12T09:29:21;23.23;;;5.73;;
49592;SDS011;35499;51.482;4.264;2023-03-12T09:31:47;23.02;;;4.78;;
49592;SDS011;35499;51.482;4.264;2023-03-12T09:34:13;22.55;;;5.13;;
49592;SDS011;35499;51.482;4.264;2023-03-12T09:36:38;22.60;;;5.30;;
49592;SDS011;35499;51.482;4.264;2023-03-12T09:39:03;29.83;;;4.87;;
49592;SDS011;35499;51.482;4.264;2023-03-12T09:41:29;32.27;;;5.93;;
49592;SDS011;35499;51.482;4.264;2023-03-12T09:46:32;18.83;;;3.85;;
49592;SDS011;35499;51.482;4.264;2023-03-12T09:49:09;28.17;;;3.67;;
49592;SDS011;35499;51.482;4.264;2023-03-12T09:51:40;26.98;;;4.15;;
49592;SDS011;35499;51.482;4.264;2023-03-12T09:54:53;19.50;;;4.30;;
49592;SDS011;35499;51.482;4.264;2023-03-12T09:57:40;30.30;;;4.38;;
49592;SDS011;35499;51.482;4.264;2023-03-12T10:04:40;16.92;;;3.40;;
49592;SDS011;35499;51.482;4.264;2023-03-12T10:07:11;15.73;;;2.85;;
49592;SDS011;35499;51.482;4.264;2023-03-12T10:12:23;17.38;;;3.28;;
49592;SDS011;35499;51.482;4.264;2023-03-12T10:17:48;27.83;;;5.82;;
49592;SDS011;35499;51.482;4.264;2023-03-12T10:27:54;16.42;;;4.20;;
49592;SDS011;35499;51.482;4.264;2023-03-12T10:30:25;21.20;;;4.28;;
49592;SDS011;35499;51.482;4.264;2023-03-12T10:32:54;23.77;;;3.85;;
49592;SDS011;35499;51.482;4.264;2023-03-12T10:35:23;21.80;;;4.18;;
49592;SDS011;35499;51.482;4.264;2023-03-12T10:37:58;21.58;;;4.38;;
49592;SDS011;35499;51.482;4.264;2023-03-12T10:40:27;21.38;;;3.95;;
49592;SDS011;35499;51.482;4.264;2023-03-12T10:42:55;26.67;;;5.28;;
49592;SDS011;35499;51.482;4.264;2023-03-12T10:45:30;20.90;;;3.65;;
49592;SDS011;35499;51.482;4.264;2023-03-12T10:48:03;24.05;;;4.25;;
49592;SDS011;35499;51.482;4.264;2023-03-12T10:50:33;25.73;;;3.85;;
49592;SDS011;35499;51.482;4.264;2023-03-12T10:53:23;17.88;;;2.75;;
49592;SDS011;35499;51.482;4.264;2023-03-12T10:56:09;21.48;;;3.38;;
49592;SDS011;35499;51.482;4.264;2023-03-12T10:58:40;21.85;;;4.03;;
49592;SDS011;35499;51.482;4.264;2023-03-12T11:03:38;23.15;;;3.83;;
49592;SDS011;35499;51.482;4.264;2023-03-12T11:06:04;19.40;;;3.40;;
49592;SDS011;35499;51.482;4.264;2023-03-12T11:08:35;21.02;;;3.88;;
49592;SDS011;35499;51.482;4.264;2023-03-12T11:11:02;18.92;;;4.10;;
49592;SDS011;35499;51.482;4.264;2023-03-12T11:13:30;18.00;;;3.30;;
49592;SDS011;35499;51.482;4.264;2023-03-12T11:15:59;17.40;;;3.40;;
49592;SDS011;35499;51.482;4.264;2023-03-12T11:23:34;20.35;;;3.50;;
49592;SDS011;35499;51.482;4.264;2023-03-12T11:26:10;21.02;;;3.58;;
49592;SDS011;35499;51.482;4.264;2023-03-12T11:31:08;22.95;;;3.58;;
49592;SDS011;35499;51.482;4.264;2023-03-12T11:33:39;22.33;;;2.88;;
49592;SDS011;35499;51.482;4.264;2023-03-12T11:47:59;20.23;;;2.80;;
49592;SDS011;35499;51.482;4.264;2023-03-12T11:56:13;18.52;;;3.40;;
49592;SDS011;35499;51.482;4.264;2023-03-12T12:26:37;22.95;;;3.92;;
49592;SDS011;35499;51.482;4.264;2023-03-12T12:31:48;18.95;;;2.85;;
49592;SDS011;35499;51.482;4.264;2023-03-12T12:37:19;13.65;;;2.92;;
49592;SDS011;35499;51.482;4.264;2023-03-12T12:45:26;17.85;;;2.53;;
49592;SDS011;35499;51.482;4.264;2023-03-12T12:48:02;16.23;;;2.17;;
49592;SDS011;35499;51.482;4.264;2023-03-12T12:50:34;19.63;;;2.75;;
49592;SDS011;35499;51.482;4.264;2023-03-12T12:53:04;26.88;;;5.32;;
49592;SDS011;35499;51.482;4.264;2023-03-12T12:58:25;16.42;;;2.83;;
49592;SDS011;35499;51.482;4.264;2023-03-12T13:01:04;14.27;;;2.60;;
49592;SDS011;35499;51.482;4.264;2023-03-12T13:03:30;22.73;;;2.83;;
49592;SDS011;35499;51.482;4.264;2023-03-12T13:05:59;17.40;;;2.78;;
49592;SDS011;35499;51.482;4.264;2023-03-12T13:09:03;20.25;;;3.00;;
49592;SDS011;35499;51.482;4.264;2023-03-12T13:11:25;13.60;;;3.00;;
49592;SDS011;35499;51.482;4.264;2023-03-12T13:16:32;22.67;;;2.30;;
49592;SDS011;35499;51.482;4.264;2023-03-12T13:18:59;22.05;;;3.45;;
49592;SDS011;35499;51.482;4.264;2023-03-12T13:21:35;12.82;;;2.17;;
49592;SDS011;35499;51.482;4.264;2023-03-12T13:29:55;19.77;;;2.47;;
49592;SDS011;35499;51.482;4.264;2023-03-12T13:34:58;22.50;;;2.97;;
49592;SDS011;35499;51.482;4.264;2023-03-12T13:40:37;10.52;;;2.38;;
49592;SDS011;35499;51.482;4.264;2023-03-12T13:43:16;11.48;;;2.55;;
49592;SDS011;35499;51.482;4.264;2023-03-12T13:46:05;11.82;;;2.22;;
49592;SDS011;35499;51.482;4.264;2023-03-12T13:48:43;16.10;;;2.60;;
49592;SDS011;35499;51.482;4.264;2023-03-12T13:51:13;16.52;;;3.35;;
49592;SDS011;35499;51.482;4.264;2023-03-12T13:53:41;23.33;;;2.85;;
49592;SDS011;35499;51.482;4.264;2023-03-12T13:56:14;14.80;;;2.08;;
49592;SDS011;35499;51.482;4.264;2023-03-12T14:01:19;17.73;;;2.75;;
49592;SDS011;35499;51.482;4.264;2023-03-12T14:03:52;22.80;;;3.53;;
49592;SDS011;35499;51.482;4.264;2023-03-12T14:06:21;21.48;;;2.58;;
49592;SDS011;35499;51.482;4.264;2023-03-12T14:11:32;20.27;;;4.20;;
49592;SDS011;35499;51.482;4.264;2023-03-12T14:17:09;15.82;;;2.78;;
49592;SDS011;35499;51.482;4.264;2023-03-12T14:22:24;16.70;;;3.25;;
49592;SDS011;35499;51.482;4.264;2023-03-12T14:24:57;20.73;;;3.78;;
49592;SDS011;35499;51.482;4.264;2023-03-12T14:27:28;23.13;;;4.13;;
49592;SDS011;35499;51.482;4.264;2023-03-12T14:29:58;19.70;;;2.75;;
49592;SDS011;35499;51.482;4.264;2023-03-12T14:32:34;18.52;;;3.28;;
49592;SDS011;35499;51.482;4.264;2023-03-12T14:37:54;12.77;;;2.38;;
49592;SDS011;35499;51.482;4.264;2023-03-12T14:40:42;24.92;;;3.55;;
49592;SDS011;35499;51.482;4.264;2023-03-12T14:43:33;16.45;;;2.63;;
49592;SDS011;35499;51.482;4.264;2023-03-12T14:46:00;17.20;;;2.63;;
49592;SDS011;35499;51.482;4.264;2023-03-12T14:48:29;12.50;;;2.33;;
49592;SDS011;35499;51.482;4.264;2023-03-12T14:50:59;19.85;;;3.20;;
49592;SDS011;35499;51.482;4.264;2023-03-12T14:53:28;16.13;;;4.50;;
49592;SDS011;35499;51.482;4.264;2023-03-12T14:55:59;14.45;;;2.63;;
49592;SDS011;35499;51.482;4.264;2023-03-12T14:58:27;17.85;;;3.25;;
49592;SDS011;35499;51.482;4.264;2023-03-12T15:00:55;26.02;;;3.88;;
49592;SDS011;35499;51.482;4.264;2023-03-12T15:03:32;18.17;;;3.03;;
49592;SDS011;35499;51.482;4.264;2023-03-12T15:06:11;26.58;;;4.10;;
49592;SDS011;35499;51.482;4.264;2023-03-12T15:08:43;26.98;;;4.18;;
49592;SDS011;35499;51.482;4.264;2023-03-12T15:11:09;16.30;;;2.85;;
49592;SDS011;35499;51.482;4.264;2023-03-12T15:13:36;20.88;;;3.40;;
49592;SDS011;35499;51.482;4.264;2023-03-12T15:16:02;19.40;;;3.95;;
49592;SDS011;35499;51.482;4.264;2023-03-12T15:20:56;15.48;;;3.65;;
49592;SDS011;35499;51.482;4.264;2023-03-12T15:23:25;15.80;;;3.33;;
49592;SDS011;35499;51.482;4.264;2023-03-12T15:28:35;23.05;;;3.38;;
49592;SDS011;35499;51.482;4.264;2023-03-12T15:31:07;17.52;;;3.30;;
49592;SDS011;35499;51.482;4.264;2023-03-12T15:33:41;24.08;;;3.67;;
49592;SDS011;35499;51.482;4.264;2023-03-12T15:39:45;14.27;;;2.63;;
49592;SDS011;35499;51.482;4.264;2023-03-12T15:41:50;15.63;;;3.25;;
49592;SDS011;35499;51.482;4.264;2023-03-12T15:46:45;19.13;;;3.55;;
49592;SDS011;35499;51.482;4.264;2023-03-12T15:49:17;21.35;;;2.97;;
49592;SDS011;35499;51.482;4.264;2023-03-12T15:54:58;22.48;;;3.88;;
49592;SDS011;35499;51.482;4.264;2023-03-12T16:03:21;13.63;;;2.63;;
49592;SDS011;35499;51.482;4.264;2023-03-12T16:05:30;22.45;;;3.17;;
49592;SDS011;35499;51.482;4.264;2023-03-12T16:08:12;14.68;;;2.72;;
49592;SDS011;35499;51.482;4.264;2023-03-12T16:10:41;23.98;;;3.65;;
49592;SDS011;35499;51.482;4.264;2023-03-12T16:13:08;16.33;;;2.97;;
49592;SDS011;35499;51.482;4.264;2023-03-12T16:15:37;18.25;;;2.85;;
49592;SDS011;35499;51.482;4.264;2023-03-12T16:18:02;21.08;;;3.42;;
49592;SDS011;35499;51.482;4.264;2023-03-12T16:20:28;23.73;;;3.58;;
49592;SDS011;35499;51.482;4.264;2023-03-12T16:22:53;16.08;;;2.85;;
49592;SDS011;35499;51.482;4.264;2023-03-12T16:25:19;24.67;;;5.40;;
49592;SDS011;35499;51.482;4.264;2023-03-12T16:27:55;19.25;;;2.83;;
49592;SDS011;35499;51.482;4.264;2023-03-12T16:33:00;22.73;;;3.28;;
49592;SDS011;35499;51.482;4.264;2023-03-12T16:35:27;18.25;;;3.42;;
49592;SDS011;35499;51.482;4.264;2023-03-12T16:37:55;24.70;;;3.10;;
49592;SDS011;35499;51.482;4.264;2023-03-12T16:40:20;24.08;;;4.15;;
49592;SDS011;35499;51.482;4.264;2023-03-12T16:42:47;19.23;;;2.77;;
49592;SDS011;35499;51.482;4.264;2023-03-12T16:45:14;22.65;;;3.00;;
49592;SDS011;35499;51.482;4.264;2023-03-12T16:47:40;23.73;;;4.25;;
49592;SDS011;35499;51.482;4.264;2023-03-12T16:50:13;19.92;;;2.85;;
49592;SDS011;35499;51.482;4.264;2023-03-12T16:52:40;23.15;;;3.10;;
49592;SDS011;35499;51.482;4.264;2023-03-12T16:55:06;20.85;;;4.32;;
49592;SDS011;35499;51.482;4.264;2023-03-12T16:57:32;20.42;;;3.55;;
49592;SDS011;35499;51.482;4.264;2023-03-12T17:00:04;29.73;;;4.47;;
49592;SDS011;35499;51.482;4.264;2023-03-12T17:02:35;18.08;;;3.53;;
49592;SDS011;35499;51.482;4.264;2023-03-12T17:05:01;17.10;;;3.60;;
49592;SDS011;35499;51.482;4.264;2023-03-12T17:07:27;14.55;;;2.78;;
49592;SDS011;35499;51.482;4.264;2023-03-12T17:09:52;17.87;;;3.30;;
49592;SDS011;35499;51.482;4.264;2023-03-12T17:12:19;18.13;;;3.33;;
49592;SDS011;35499;51.482;4.264;2023-03-12T17:17:16;27.13;;;3.55;;